Terminal Aerodrome Forecast
Issued by NWS

Home | Current Version | Previous Version | Graphics & Text | Print | Product List | Glossary On
Versions: 1 2 3 4 5 6 7 8 9 10 11 12 13
000
FTUS45 KGGW 080523
TAFGDV
TAF
KGDV 080523Z 0806/0906 29011KT P6SM BKN020 OVC050
     FM082000 29005KT P6SM SCT050
     FM090100 03004KT P6SM SCT050 SCT200=

USA.gov is the U.S. government's official web portal to all federal, state and local government web resources and services.